Time;durP1;ratioP1;P1;durP2;ratioP2;P2;SDS_P1;SDS_P2;PMS_P1;PMS_P2;Temp;Humidity;BMP_temperature;BMP_pressure;BME280_temperature;BME280_humidity;BME280_pressure;Samples;Min_cycle;Max_cycle;Signal;HPM_P1;HPM_P2
2023/05/22 00:01:28;;;;;;;11.60;7.05;;;;;;;20.15;59.26;101647.38;7394608;19;20024;-50
2023/05/22 00:03:56;;;;;;;10.30;7.28;;;;;;;20.13;59.25;101646.69;7394181;19;20023;-51
2023/05/22 00:06:23;;;;;;;9.05;6.30;;;;;;;20.13;58.72;101646.69;7394120;19;20621;-49
2023/05/22 00:08:50;;;;;;;11.82;7.20;;;;;;;20.12;58.77;101647.69;7393747;19;20487;-53
2023/05/22 00:11:17;;;;;;;12.90;6.68;;;;;;;20.14;58.89;101650.22;7390876;19;20018;-51
2023/05/22 00:13:45;;;;;;;14.25;6.88;;;;;;;20.13;58.95;101638.63;7394112;19;20082;-47
2023/05/22 00:16:12;;;;;;;10.13;6.35;;;;;;;20.11;58.74;101642.44;7390182;19;20674;-50
2023/05/22 00:18:43;;;;;;;11.77;7.30;;;;;;;20.11;58.88;101643.31;7393738;19;20455;-50
2023/05/22 00:21:10;;;;;;;10.63;7.05;;;;;;;20.10;58.49;101646.97;7391923;19;20038;-47
2023/05/22 00:23:37;;;;;;;11.30;7.15;;;;;;;20.09;58.89;101639.06;7393746;19;20023;-51
2023/05/22 00:26:04;;;;;;;10.35;7.07;;;;;;;20.07;58.86;101641.06;7392781;19;20014;-48
2023/05/22 00:28:32;;;;;;;10.35;6.85;;;;;;;20.04;58.87;101642.22;7393659;19;20023;-46
2023/05/22 00:30:59;;;;;;;10.98;6.47;;;;;;;20.02;59.01;101633.47;7391702;19;20096;-48
2023/05/22 00:33:28;;;;;;;11.88;7.00;;;;;;;20.00;58.79;101634.63;7392753;19;20018;-50
2023/05/22 00:35:55;;;;;;;10.07;6.78;;;;;;;19.96;59.24;101634.94;7392175;19;20527;-50
2023/05/22 00:38:31;;;;;;;10.00;6.78;;;;;;;19.96;59.04;101623.34;7392519;19;20074;-54
2023/05/22 00:40:59;;;;;;;11.77;6.53;;;;;;;19.90;59.14;101619.41;7390512;19;20395;-48
2023/05/22 00:43:27;;;;;;;11.38;6.68;;;;;;;19.86;59.02;101614.47;7393826;19;20051;-46
2023/05/22 00:45:54;;;;;;;10.93;6.50;;;;;;;19.85;59.15;101616.34;7392604;19;20022;-46
2023/05/22 00:48:22;;;;;;;10.07;6.10;;;;;;;19.86;59.08;101620.69;7392944;19;20021;-47
2023/05/22 00:50:50;;;;;;;17.42;6.50;;;;;;;19.84;58.87;101625.41;7390162;19;20025;-47
2023/05/22 00:53:23;;;;;;;9.00;6.47;;;;;;;19.84;59.14;101621.84;7392970;19;20028;-46
2023/05/22 00:55:52;;;;;;;9.70;6.72;;;;;;;19.78;58.97;101620.63;7391926;19;20022;-47
2023/05/22 00:58:20;;;;;;;13.13;6.65;;;;;;;19.74;59.48;101607.66;7392846;19;20039;-46
2023/05/22 01:00:47;;;;;;;10.75;6.72;;;;;;;19.66;59.49;101619.16;7389566;19;20022;-48
2023/05/22 01:03:16;;;;;;;12.85;7.18;;;;;;;19.62;60.15;101612.41;7392906;19;20089;-46
2023/05/22 01:05:44;;;;;;;11.98;7.07;;;;;;;19.57;60.11;101607.41;7390365;19;20010;-47
2023/05/22 01:08:11;;;;;;;10.45;6.75;;;;;;;19.52;60.58;101606.19;7392978;19;20023;-50
2023/05/22 01:10:39;;;;;;;12.57;6.88;;;;;;;19.48;60.54;101605.66;7390440;19;20018;-49
2023/05/22 01:13:39;;;;;;;12.15;7.40;;;;;;;19.49;60.06;101604.63;7392823;19;20022;-47
2023/05/22 01:16:33;;;;;;;10.68;7.40;;;;;;;19.40;60.39;101602.88;7389280;19;20011;-48
2023/05/22 01:19:20;;;;;;;9.10;6.82;;;;;;;19.36;60.50;101613.06;7391738;19;20019;-49
2023/05/22 01:22:05;;;;;;;10.85;7.53;;;;;;;19.33;60.65;101613.34;7391918;19;20022;-49
2023/05/22 01:24:59;;;;;;;11.63;7.40;;;;;;;19.24;61.26;101612.41;7391744;19;20018;-47
2023/05/22 01:27:57;;;;;;;11.07;6.97;;;;;;;19.21;61.58;101607.34;7392094;19;20019;-51
2023/05/22 01:30:54;;;;;;;12.45;7.30;;;;;;;19.13;61.67;101604.53;7389941;19;20163;-47
2023/05/22 01:33:24;;;;;;;11.77;6.68;;;;;;;19.05;61.75;101603.59;7391547;19;20495;-47
2023/05/22 01:35:56;;;;;;;10.75;7.10;;;;;;;19.04;61.56;101601.88;7390578;19;20106;-47
2023/05/22 01:38:23;;;;;;;9.70;6.72;;;;;;;18.98;62.14;101598.81;7390981;19;20031;-52
2023/05/22 01:40:52;;;;;;;10.38;6.85;;;;;;;18.94;62.11;101594.72;7389884;19;20014;-47
2023/05/22 01:43:20;;;;;;;11.35;6.93;;;;;;;18.90;62.52;101597.88;7392038;19;20106;-51
2023/05/22 01:45:47;;;;;;;9.32;6.90;;;;;;;18.90;62.36;101598.69;7389484;19;20019;-50
2023/05/22 01:48:15;;;;;;;11.07;7.18;;;;;;;18.87;62.47;101601.66;7391168;19;20483;-49
2023/05/22 01:50:44;;;;;;;9.20;7.03;;;;;;;18.84;62.42;101587.69;7387597;19;20335;-50
2023/05/22 01:53:27;;;;;;;10.63;7.10;;;;;;;18.79;62.29;101584.63;7391584;19;20018;-49
2023/05/22 01:56:05;;;;;;;11.40;7.63;;;;;;;18.76;62.72;101580.38;7389186;19;20472;-48
2023/05/22 01:58:41;;;;;;;11.35;7.10;;;;;;;18.73;62.44;101584.22;7389909;19;20022;-51
2023/05/22 02:01:10;;;;;;;10.98;6.70;;;;;;;18.70;62.47;101586.31;7389304;19;20029;-50
2023/05/22 02:03:38;;;;;;;11.02;7.20;;;;;;;18.69;62.22;101584.59;7389905;19;20023;-46
2023/05/22 02:06:08;;;;;;;12.13;6.80;;;;;;;18.68;62.48;101588.28;7389976;19;20022;-52
2023/05/22 02:08:38;;;;;;;10.63;7.13;;;;;;;18.67;62.31;101584.75;7388641;19;20021;-51
2023/05/22 02:11:06;;;;;;;11.75;6.97;;;;;;;18.65;62.29;101593.94;7388582;19;20018;-47
2023/05/22 02:13:34;;;;;;;13.25;7.30;;;;;;;18.61;62.35;101592.53;7390978;19;20025;-47
2023/05/22 02:16:02;;;;;;;11.18;7.45;;;;;;;18.57;62.76;101593.81;7389029;19;20015;-50
2023/05/22 02:18:30;;;;;;;11.63;7.70;;;;;;;18.49;62.91;101589.16;7389955;19;20018;-48
2023/05/22 02:20:58;;;;;;;10.40;7.53;;;;;;;18.39;63.63;101589.22;7388458;19;20034;-52
2023/05/22 02:23:28;;;;;;;11.00;7.32;;;;;;;18.37;63.93;101590.31;7389027;19;20011;-51
2023/05/22 02:25:55;;;;;;;12.35;7.30;;;;;;;18.31;64.00;101586.38;7389458;19;20377;-47
2023/05/22 02:28:23;;;;;;;11.48;7.45;;;;;;;18.28;64.18;101586.69;7390073;19;20022;-52
2023/05/22 02:30:50;;;;;;;10.02;7.60;;;;;;;18.25;64.50;101586.97;7388321;19;20034;-52
2023/05/22 02:33:17;;;;;;;10.50;7.25;;;;;;;18.20;64.52;101586.53;7390639;19;20095;-48
2023/05/22 02:35:44;;;;;;;11.27;7.45;;;;;;;18.19;64.73;101583.00;7389339;19;20018;-49
2023/05/22 02:38:12;;;;;;;11.95;8.02;;;;;;;18.15;64.54;101570.03;7390218;19;20532;-51
2023/05/22 02:40:39;;;;;;;10.05;7.55;;;;;;;18.17;64.76;101574.25;7386729;19;20014;-50
2023/05/22 02:43:07;;;;;;;11.95;7.30;;;;;;;18.19;64.32;101566.06;7390265;19;20022;-50
2023/05/22 02:45:34;;;;;;;11.18;7.10;;;;;;;18.18;64.04;101569.75;7389170;19;20112;-52
2023/05/22 02:48:02;;;;;;;11.52;7.15;;;;;;;18.15;64.44;101565.50;7389649;19;20014;-50
2023/05/22 02:50:29;;;;;;;9.38;7.47;;;;;;;18.17;64.19;101563.53;7387391;19;20086;-49
2023/05/22 02:52:56;;;;;;;10.63;7.38;;;;;;;18.19;63.98;101561.53;7389252;19;20015;-49
2023/05/22 02:55:23;;;;;;;10.05;7.22;;;;;;;18.17;63.82;101560.84;7389102;19;20105;-51
2023/05/22 02:57:54;;;;;;;12.32;7.38;;;;;;;18.16;64.15;101559.19;7387787;19;20070;-52
2023/05/22 03:00:21;;;;;;;11.73;7.45;;;;;;;18.16;64.31;101552.94;7385695;19;20035;-51
2023/05/22 03:02:48;;;;;;;10.13;7.47;;;;;;;18.10;64.14;101549.00;7389447;19;20022;-49
2023/05/22 03:05:16;;;;;;;11.70;7.40;;;;;;;18.12;64.37;101547.00;7386881;19;20015;-48
2023/05/22 03:07:44;;;;;;;13.02;7.80;;;;;;;18.10;63.88;101546.31;7387467;19;20022;-49
2023/05/22 03:10:14;;;;;;;12.07;7.72;;;;;;;18.11;63.95;101550.69;7386858;19;20073;-48
2023/05/22 03:12:42;;;;;;;10.82;7.20;;;;;;;18.09;64.30;101554.53;7387614;19;20373;-48
2023/05/22 03:15:10;;;;;;;11.07;7.25;;;;;;;18.09;64.04;101543.81;7393133;19;20007;-48
2023/05/22 03:17:37;;;;;;;10.88;7.47;;;;;;;18.06;64.43;101544.91;7393815;19;20491;-50
2023/05/22 03:20:05;;;;;;;9.98;7.40;;;;;;;18.05;64.52;101543.25;7394067;19;20021;-50
2023/05/22 03:22:32;;;;;;;11.52;8.35;;;;;;;18.05;64.21;101542.38;7394138;19;20374;-52
2023/05/22 03:25:00;;;;;;;10.88;7.70;;;;;;;18.07;64.15;101537.72;7393604;19;20047;-51
2023/05/22 03:27:28;;;;;;;11.07;7.50;;;;;;;18.15;64.18;101543.22;7395694;19;20537;-50
2023/05/22 03:29:55;;;;;;;11.88;7.20;;;;;;;18.17;63.82;101538.56;7393722;19;20476;-48
2023/05/22 03:32:22;;;;;;;13.07;8.00;;;;;;;18.19;63.47;101541.94;7395342;19;20519;-52
2023/05/22 03:34:49;;;;;;;12.25;7.30;;;;;;;18.19;63.20;101539.25;7395517;19;20018;-48
2023/05/22 03:37:16;;;;;;;14.00;7.35;;;;;;;18.22;63.51;101541.66;7393867;19;20519;-49
2023/05/22 03:39:43;;;;;;;9.43;6.50;;;;;;;18.24;63.08;101545.91;7393579;19;20010;-48
2023/05/22 03:42:12;;;;;;;10.50;7.10;;;;;;;18.28;62.85;101543.78;7395438;19;20502;-49
2023/05/22 03:44:39;;;;;;;11.43;7.28;;;;;;;18.29;62.84;101550.81;7393169;19;20026;-47
2023/05/22 03:47:06;;;;;;;11.23;6.85;;;;;;;18.20;63.26;101555.22;7395190;19;20027;-48
2023/05/22 03:49:33;;;;;;;11.15;7.40;;;;;;;18.11;63.77;101560.56;7392106;19;20018;-48
2023/05/22 03:52:01;;;;;;;10.57;7.07;;;;;;;18.13;63.65;101554.09;7393457;19;20086;-50
2023/05/22 03:54:28;;;;;;;10.27;7.50;;;;;;;18.17;63.64;101551.97;7392897;19;20026;-48
2023/05/22 03:56:55;;;;;;;9.75;7.05;;;;;;;18.20;63.61;101552.53;7392352;19;20050;-49
2023/05/22 03:59:23;;;;;;;11.82;7.45;;;;;;;18.21;63.40;101551.53;7393683;19;20023;-48
2023/05/22 04:01:50;;;;;;;10.77;6.95;;;;;;;18.24;63.31;101555.78;7392587;19;20483;-51
2023/05/22 04:04:17;;;;;;;10.23;7.03;;;;;;;18.20;63.60;101555.22;7394986;19;20089;-47
2023/05/22 04:06:44;;;;;;;10.52;7.38;;;;;;;18.19;63.71;101556.19;7394155;19;20066;-47
2023/05/22 04:09:12;;;;;;;9.65;7.32;;;;;;;18.18;63.30;101557.19;7391501;19;20022;-48
2023/05/22 04:11:40;;;;;;;11.02;7.18;;;;;;;18.18;63.71;101559.88;7392945;19;20022;-49
2023/05/22 04:14:08;;;;;;;11.10;6.53;;;;;;;18.18;63.53;101554.50;7394490;19;20022;-48
2023/05/22 04:16:36;;;;;;;10.35;7.20;;;;;;;18.16;63.63;101560.97;7393189;19;20558;-49
2023/05/22 04:19:03;;;;;;;12.45;7.72;;;;;;;18.19;63.64;101550.81;7393004;19;20082;-52
2023/05/22 04:21:32;;;;;;;9.82;7.28;;;;;;;18.21;63.37;101559.59;7392566;19;20050;-48
2023/05/22 04:24:05;;;;;;;11.35;7.50;;;;;;;18.17;63.72;101550.13;7393783;19;20534;-51
2023/05/22 04:26:33;;;;;;;8.95;6.65;;;;;;;18.15;63.90;101548.56;7389907;19;20019;-52
2023/05/22 04:29:01;;;;;;;10.40;7.28;;;;;;;18.16;63.61;101553.81;7393222;19;20033;-51
2023/05/22 04:31:29;;;;;;;10.70;7.32;;;;;;;18.16;63.93;101561.84;7394232;19;20009;-48
2023/05/22 04:33:58;;;;;;;10.05;7.55;;;;;;;18.20;63.66;101557.03;7391320;19;20014;-52
2023/05/22 04:36:26;;;;;;;11.20;7.05;;;;;;;18.22;63.94;101555.91;7392706;19;20374;-50
2023/05/22 04:38:54;;;;;;;12.45;7.22;;;;;;;18.26;63.69;101553.78;7392403;19;20015;-47
2023/05/22 04:41:25;;;;;;;10.88;7.22;;;;;;;18.30;63.34;101554.34;7394087;19;20018;-51
2023/05/22 04:43:53;;;;;;;11.13;7.15;;;;;;;18.32;63.33;101552.38;7393298;19;20134;-50
2023/05/22 04:46:21;;;;;;;11.50;6.60;;;;;;;18.36;63.10;101551.94;7393051;19;20023;-52
2023/05/22 04:48:48;;;;;;;11.02;7.10;;;;;;;18.35;62.88;101549.38;7388484;19;20007;-52
2023/05/22 04:51:15;;;;;;;12.15;6.70;;;;;;;18.36;62.86;101553.78;7390916;19;20022;-53
2023/05/22 04:53:43;;;;;;;10.43;7.07;;;;;;;18.35;62.76;101558.28;7391408;19;20018;-50
2023/05/22 04:56:10;;;;;;;12.43;7.60;;;;;;;18.37;62.97;101552.78;7392360;19;20025;-51
2023/05/22 04:58:40;;;;;;;11.10;7.70;;;;;;;18.40;62.66;101547.97;7388399;19;20054;-52
2023/05/22 05:01:08;;;;;;;10.95;7.10;;;;;;;18.45;62.76;101548.38;7390722;19;20010;-53
2023/05/22 05:03:35;;;;;;;12.77;7.47;;;;;;;18.49;62.51;101556.97;7392269;19;20017;-52
2023/05/22 05:06:03;;;;;;;11.13;7.88;;;;;;;18.53;62.67;101547.66;7391816;19;20026;-53
2023/05/22 05:08:30;;;;;;;10.60;7.15;;;;;;;18.52;62.82;101535.25;7391029;19;20027;-53
2023/05/22 05:10:57;;;;;;;12.05;8.73;;;;;;;18.54;62.79;101537.75;7390798;19;20033;-51
2023/05/22 05:13:24;;;;;;;9.35;6.90;;;;;;;18.56;62.53;101538.47;7391952;19;20018;-48
2023/05/22 05:15:51;;;;;;;12.38;7.47;;;;;;;18.57;62.81;101538.31;7391199;19;20029;-51
2023/05/22 05:18:19;;;;;;;11.15;7.00;;;;;;;18.62;62.38;101540.56;7390484;19;20035;-53
2023/05/22 05:20:46;;;;;;;11.15;7.28;;;;;;;18.64;62.81;101534.06;7390406;19;20094;-50
2023/05/22 05:23:14;;;;;;;9.60;7.18;;;;;;;18.64;62.73;101535.91;7391587;19;20487;-52
2023/05/22 05:25:41;;;;;;;11.45;7.10;;;;;;;18.67;62.73;101539.16;7393362;19;20022;-53
2023/05/22 05:28:10;;;;;;;11.52;7.00;;;;;;;18.65;63.43;101545.63;7391674;19;20014;-51
2023/05/22 05:30:38;;;;;;;10.07;7.40;;;;;;;18.69;63.29;101547.03;7389587;19;20097;-49
2023/05/22 05:33:06;;;;;;;12.50;7.28;;;;;;;18.75;63.01;101550.00;7391837;19;20014;-51
2023/05/22 05:35:33;;;;;;;9.18;6.65;;;;;;;18.79;62.82;101547.88;7391357;19;20039;-49
2023/05/22 05:38:00;;;;;;;12.27;7.25;;;;;;;18.82;63.05;101547.59;7388037;19;20504;-52
2023/05/22 05:40:27;;;;;;;11.25;6.60;;;;;;;18.86;62.71;101557.03;7389014;19;20022;-52
2023/05/22 05:42:55;;;;;;;10.48;7.40;;;;;;;18.87;63.17;101566.78;7389960;19;20038;-52
2023/05/22 05:45:22;;;;;;;11.23;7.32;;;;;;;18.91;62.71;101561.97;7390018;19;20006;-53
2023/05/22 05:47:49;;;;;;;10.95;6.72;;;;;;;18.92;62.38;101558.28;7391091;19;20020;-51
2023/05/22 05:50:16;;;;;;;10.82;6.93;;;;;;;19.01;62.00;101559.25;7389409;19;20026;-49
2023/05/22 05:52:44;;;;;;;9.80;6.43;;;;;;;19.11;61.90;101557.34;7390256;19;20019;-48
2023/05/22 05:55:11;;;;;;;12.27;6.38;;;;;;;19.16;61.60;101553.25;7390241;19;20011;-48
2023/05/22 05:57:38;;;;;;;10.88;6.97;;;;;;;19.17;61.71;101560.28;7387873;19;20026;-48
2023/05/22 06:00:08;;;;;;;14.82;7.45;;;;;;;19.21;61.18;101566.22;7389589;19;20019;-50
2023/05/22 06:02:36;;;;;;;13.32;7.38;;;;;;;19.22;61.36;101567.91;7390705;19;20093;-49
2023/05/22 06:05:04;;;;;;;11.43;7.07;;;;;;;19.28;61.81;101578.03;7388559;19;20014;-49
2023/05/22 06:07:31;;;;;;;11.82;7.45;;;;;;;19.30;61.93;101567.97;7390621;19;20064;-53
2023/05/22 06:09:58;;;;;;;11.18;6.47;;;;;;;19.30;62.05;101567.16;7388910;19;20030;-50
2023/05/22 06:12:26;;;;;;;13.40;7.55;;;;;;;19.31;61.70;101564.31;7390441;19;20074;-48
2023/05/22 06:14:53;;;;;;;13.82;7.10;;;;;;;19.32;62.10;101573.22;7389473;19;20018;-48
2023/05/22 06:17:20;;;;;;;12.98;7.28;;;;;;;19.33;62.55;101573.06;7389684;19;20055;-49
2023/05/22 06:19:47;;;;;;;10.27;6.68;;;;;;;19.33;62.80;101575.75;7386447;19;20022;-48
2023/05/22 06:22:14;;;;;;;9.70;6.72;;;;;;;19.34;63.20;101572.06;7390122;19;20043;-48
2023/05/22 06:24:41;;;;;;;15.15;6.85;;;;;;;19.35;62.52;101571.09;7388648;19;20019;-46
2023/05/22 06:27:08;;;;;;;9.93;7.10;;;;;;;19.44;62.22;101572.00;7390112;19;20491;-47
2023/05/22 06:29:35;;;;;;;12.57;7.22;;;;;;;19.50;61.89;101568.75;7388113;19;20019;-47
2023/05/22 06:32:03;;;;;;;12.95;6.88;;;;;;;19.55;62.21;101570.97;7388783;19;20021;-49
2023/05/22 06:34:30;;;;;;;14.52;7.50;;;;;;;19.61;62.71;101557.78;7389192;19;20022;-49
2023/05/22 06:36:57;;;;;;;11.63;6.93;;;;;;;19.68;62.91;101552.63;7389353;19;20551;-50
2023/05/22 06:39:24;;;;;;;10.40;6.80;;;;;;;19.81;62.08;101561.19;7388276;19;20022;-48
2023/05/22 06:41:52;;;;;;;12.07;6.53;;;;;;;19.92;61.40;101558.28;7388179;19;20026;-47
2023/05/22 06:44:19;;;;;;;11.20;6.60;;;;;;;19.94;61.11;101556.25;7389007;19;20085;-50
2023/05/22 06:46:46;;;;;;;10.68;6.60;;;;;;;19.93;61.19;101548.34;7390094;19;20039;-53
2023/05/22 06:49:13;;;;;;;10.77;6.35;;;;;;;19.89;61.34;101558.56;7393368;19;20018;-49
2023/05/22 06:51:42;;;;;;;10.57;6.50;;;;;;;19.88;61.91;101556.00;7396070;19;20019;-51
2023/05/22 06:54:11;;;;;;;8.43;5.80;;;;;;;19.88;61.93;101550.63;7394851;19;20523;-52
2023/05/22 06:56:41;;;;;;;10.93;6.30;;;;;;;19.87;61.58;101546.28;7391376;19;20508;-51
2023/05/22 06:59:10;;;;;;;10.73;6.30;;;;;;;19.89;61.81;101546.97;7390529;19;20018;-50
2023/05/22 07:01:37;;;;;;;15.13;6.80;;;;;;;19.96;61.44;101545.34;7393766;19;20035;-48
2023/05/22 07:04:05;;;;;;;13.10;6.65;;;;;;;20.00;61.07;101546.75;7394352;19;20101;-49
2023/05/22 07:06:37;;;;;;;9.73;6.20;;;;;;;20.12;60.99;101558.09;7395537;19;20473;-48
2023/05/22 07:09:05;;;;;;;15.32;6.15;;;;;;;20.19;60.21;101551.09;7395287;19;20381;-52
2023/05/22 07:11:32;;;;;;;15.35;6.32;;;;;;;20.23;59.44;101557.00;7394437;19;20126;-49
2023/05/22 07:14:00;;;;;;;10.00;6.30;;;;;;;20.28;59.11;101554.69;7396510;19;20051;-50
2023/05/22 07:16:29;;;;;;;8.02;5.32;;;;;;;20.30;58.74;101560.72;7393853;19;20014;-52
2023/05/22 07:18:57;;;;;;;10.02;6.03;;;;;;;20.30;58.88;101566.13;7392760;19;20022;-52
2023/05/22 07:21:24;;;;;;;8.93;5.82;;;;;;;20.30;58.63;101560.72;7396494;19;20015;-52
2023/05/22 07:23:51;;;;;;;11.77;6.22;;;;;;;20.32;58.50;101569.50;7396267;19;20018;-50
2023/05/22 07:26:18;;;;;;;9.68;5.82;;;;;;;20.36;58.56;101569.03;7395207;19;20018;-52
2023/05/22 07:28:47;;;;;;;8.63;5.20;;;;;;;20.43;59.22;101574.63;7394986;19;20025;-48
2023/05/22 07:31:14;;;;;;;8.32;5.68;;;;;;;20.44;59.11;101581.69;7393485;19;20426;-49
2023/05/22 07:33:41;;;;;;;14.32;6.10;;;;;;;20.48;58.92;101587.59;7395399;19;20027;-52
2023/05/22 07:36:09;;;;;;;10.43;6.10;;;;;;;20.42;58.95;101587.25;7392988;19;20018;-51
2023/05/22 07:38:36;;;;;;;10.00;5.90;;;;;;;20.35;60.20;101588.03;7393536;19;20042;-52
2023/05/22 07:41:03;;;;;;;9.75;5.72;;;;;;;20.33;60.13;101593.56;7392742;19;20022;-49
2023/05/22 07:43:30;;;;;;;11.70;6.13;;;;;;;20.31;60.36;101595.56;7395496;19;20019;-50
2023/05/22 07:45:57;;;;;;;8.68;5.78;;;;;;;20.31;58.81;101605.50;7394686;19;20017;-52
2023/05/22 07:48:25;;;;;;;13.07;6.32;;;;;;;20.20;59.57;101599.34;7394070;19;20031;-50
2023/05/22 07:50:52;;;;;;;10.68;5.80;;;;;;;20.18;59.27;101598.66;7392558;19;20026;-49
2023/05/22 07:53:19;;;;;;;8.88;5.93;;;;;;;20.10;59.82;101593.19;7394608;19;20018;-52
2023/05/22 07:55:46;;;;;;;10.57;5.60;;;;;;;20.08;59.66;101595.22;7392218;19;20510;-50
2023/05/22 07:58:14;;;;;;;11.15;6.90;;;;;;;20.03;59.89;101585.91;7394101;19;20034;-48
2023/05/22 08:00:41;;;;;;;11.23;5.65;;;;;;;20.00;60.65;101599.69;7389250;19;20026;-49
2023/05/22 08:03:08;;;;;;;8.80;5.93;;;;;;;19.93;61.10;101591.38;7394245;19;20010;-48
2023/05/22 08:05:35;;;;;;;11.35;6.10;;;;;;;19.86;61.92;101601.03;7392266;19;20371;-48
2023/05/22 08:08:03;;;;;;;12.82;6.75;;;;;;;19.69;64.07;101590.13;7394627;19;20022;-47
2023/05/22 08:10:30;;;;;;;12.65;7.15;;;;;;;19.55;66.12;101590.63;7390840;19;20079;-52
2023/05/22 08:13:18;;;;;;;10.77;6.82;;;;;;;19.46;67.51;101586.16;7393984;19;20018;-49
2023/05/22 08:15:45;;;;;;;11.93;7.57;;;;;;;19.38;68.74;101580.66;7393253;19;20026;-48
2023/05/22 08:18:12;;;;;;;11.23;7.65;;;;;;;19.34;69.45;101585.50;7391709;19;20019;-49
2023/05/22 08:20:39;;;;;;;13.35;8.20;;;;;;;19.32;69.58;101581.28;7391849;19;20022;-49
2023/05/22 08:23:07;;;;;;;15.52;8.25;;;;;;;19.32;69.64;101575.91;7392681;19;20035;-48
2023/05/22 08:25:34;;;;;;;13.32;8.40;;;;;;;19.32;70.18;101575.91;7393411;19;20043;-48
2023/05/22 08:28:01;;;;;;;13.18;8.68;;;;;;;19.27;70.62;101564.75;7394392;19;20018;-48
2023/05/22 08:30:28;;;;;;;11.88;9.05;;;;;;;19.21;71.32;101569.72;7391166;19;20035;-48
2023/05/22 08:32:56;;;;;;;13.82;9.00;;;;;;;19.22;71.46;101560.69;7392316;19;20014;-48
2023/05/22 08:35:23;;;;;;;16.20;9.73;;;;;;;19.23;72.24;101562.38;7391776;19;20086;-49
2023/05/22 08:37:50;;;;;;;13.73;9.15;;;;;;;19.22;72.35;101560.69;7392864;19;20014;-48
2023/05/22 08:40:19;;;;;;;13.82;9.55;;;;;;;19.23;72.81;101565.06;7391124;19;20490;-51
2023/05/22 08:42:46;;;;;;;13.98;9.18;;;;;;;19.20;72.73;101562.69;7393094;19;20010;-51
2023/05/22 08:45:15;;;;;;;13.90;9.27;;;;;;;19.27;72.16;101559.38;7392459;19;20092;-50
2023/05/22 08:47:43;;;;;;;13.63;9.00;;;;;;;19.33;72.16;101566.84;7393316;19;20019;-48
2023/05/22 08:50:11;;;;;;;14.27;9.10;;;;;;;19.34;72.33;101564.00;7391343;19;20018;-49
2023/05/22 08:52:47;;;;;;;12.55;8.50;;;;;;;19.34;72.58;101565.84;7391317;19;20035;-51
2023/05/22 08:55:15;;;;;;;13.25;8.80;;;;;;;19.38;71.50;101561.88;7385374;19;20025;-50
2023/05/22 08:57:43;;;;;;;12.35;8.60;;;;;;;19.43;71.84;101554.22;7392621;19;20043;-51
2023/05/22 09:00:11;;;;;;;13.45;8.68;;;;;;;19.48;71.99;101557.28;7389348;19;20027;-47
2023/05/22 09:02:38;;;;;;;12.20;8.18;;;;;;;19.52;71.79;101557.81;7392410;19;20121;-51
2023/05/22 09:05:06;;;;;;;12.70;8.07;;;;;;;19.55;71.28;101549.47;7392178;19;20018;-49
2023/05/22 09:07:34;;;;;;;13.90;9.10;;;;;;;19.55;71.54;101552.16;7392184;19;20026;-51
2023/05/22 09:10:04;;;;;;;11.25;8.65;;;;;;;19.56;71.71;101549.31;7388599;19;20029;-52
2023/05/22 09:12:32;;;;;;;10.85;8.38;;;;;;;19.57;71.49;101548.28;7389861;19;20372;-49
2023/05/22 09:15:08;;;;;;;11.82;8.20;;;;;;;19.62;70.58;101548.75;7391401;19;20024;-51
2023/05/22 09:17:39;;;;;;;14.45;8.45;;;;;;;19.57;71.21;101550.97;7391945;19;20332;-48
2023/05/22 09:20:12;;;;;;;15.43;8.82;;;;;;;19.54;71.17;101543.25;7387892;19;20018;-51
2023/05/22 09:22:39;;;;;;;11.65;8.43;;;;;;;19.56;70.52;101543.94;7391663;19;20039;-47
2023/05/22 09:25:06;;;;;;;13.05;8.43;;;;;;;19.55;70.25;101550.31;7391531;19;20014;-51
2023/05/22 09:27:34;;;;;;;16.23;8.27;;;;;;;19.56;69.98;101549.31;7389240;19;20048;-49
2023/05/22 09:30:01;;;;;;;13.02;7.95;;;;;;;19.56;70.02;101546.63;7388507;19;20019;-50
2023/05/22 09:32:29;;;;;;;11.55;8.20;;;;;;;19.56;69.43;101543.09;7391393;19;20078;-47
2023/05/22 09:35:03;;;;;;;11.35;8.32;;;;;;;19.58;69.07;101538.41;7390555;19;20025;-50
2023/05/22 09:37:35;;;;;;;11.18;8.20;;;;;;;19.58;69.16;101533.03;7391417;19;20043;-49
2023/05/22 09:40:10;;;;;;;11.63;8.38;;;;;;;19.61;69.20;101532.72;7388831;19;20374;-49
2023/05/22 09:42:37;;;;;;;11.60;8.82;;;;;;;19.62;69.21;101529.09;7390217;19;20015;-47
2023/05/22 09:45:06;;;;;;;12.55;8.48;;;;;;;19.68;68.69;101526.59;7389952;19;20031;-48
2023/05/22 09:47:34;;;;;;;11.35;8.50;;;;;;;19.74;68.70;101527.84;7391320;19;20033;-49
2023/05/22 09:50:05;;;;;;;10.38;7.82;;;;;;;19.85;68.72;101526.78;7389428;19;20014;-47
2023/05/22 09:52:34;;;;;;;13.30;8.77;;;;;;;19.93;68.36;101533.06;7391382;19;20037;-48
2023/05/22 09:55:03;;;;;;;12.90;8.07;;;;;;;19.96;69.17;101531.91;7390054;19;20015;-46
2023/05/22 09:57:35;;;;;;;11.30;7.82;;;;;;;20.05;69.23;101536.34;7391136;19;20018;-51
2023/05/22 10:00:08;;;;;;;12.02;8.70;;;;;;;20.19;69.07;101537.66;7386457;19;20029;-49
2023/05/22 10:02:37;;;;;;;12.13;8.35;;;;;;;20.29;68.92;101538.38;7391385;19;20022;-50
2023/05/22 10:05:07;;;;;;;11.68;8.57;;;;;;;20.43;68.31;101543.19;7389550;19;20019;-51
2023/05/22 10:07:40;;;;;;;13.80;8.50;;;;;;;20.47;68.42;101541.03;7390740;19;20356;-48
2023/05/22 10:10:10;;;;;;;13.77;8.73;;;;;;;20.51;68.03;101542.44;7388761;19;20349;-47
2023/05/22 10:12:42;;;;;;;12.40;8.93;;;;;;;20.58;68.17;101540.78;7388328;19;20454;-47
2023/05/22 10:15:10;;;;;;;14.50;8.73;;;;;;;20.58;67.96;101539.94;7389471;19;20015;-49
2023/05/22 10:17:39;;;;;;;12.55;8.60;;;;;;;20.66;68.16;101537.31;7390512;19;20479;-49
2023/05/22 10:20:07;;;;;;;12.77;9.05;;;;;;;20.78;67.18;101543.25;7387340;19;20029;-48
2023/05/22 10:22:36;;;;;;;12.45;8.43;;;;;;;20.84;66.61;101540.78;7389697;19;20520;-47
2023/05/22 10:25:05;;;;;;;14.50;9.05;;;;;;;20.92;66.31;101526.50;7397187;19;20035;-47
2023/05/22 10:27:35;;;;;;;11.45;9.07;;;;;;;20.93;67.09;101526.31;7396029;19;20014;-49
2023/05/22 10:30:09;;;;;;;14.25;9.00;;;;;;;21.00;67.21;101523.84;7395421;19;20018;-50
2023/05/22 10:33:00;;;;;;;12.93;8.50;;;;;;;21.02;66.01;101529.88;7395696;19;20461;-51
2023/05/22 10:35:38;;;;;;;12.88;8.50;;;;;;;21.01;64.55;101525.50;7396457;19;20021;-51
2023/05/22 10:38:17;;;;;;;10.48;8.10;;;;;;;20.98;64.61;101531.22;7396805;19;20014;-50
2023/05/22 10:40:46;;;;;;;11.57;8.40;;;;;;;20.99;64.50;101529.41;7394069;19;20085;-48
2023/05/22 10:43:14;;;;;;;12.10;7.78;;;;;;;20.88;63.62;101534.06;7396973;19;20015;-51
2023/05/22 10:45:43;;;;;;;10.60;8.15;;;;;;;20.85;63.60;101528.97;7396594;19;20083;-50
2023/05/22 10:48:11;;;;;;;14.93;8.10;;;;;;;20.83;64.13;101533.66;7396542;19;20017;-52
2023/05/22 10:50:39;;;;;;;10.65;7.65;;;;;;;20.79;63.80;101529.63;7392554;19;20078;-50
2023/05/22 10:53:22;;;;;;;13.27;8.07;;;;;;;20.85;63.70;101525.44;7396917;19;20019;-50
2023/05/22 10:55:51;;;;;;;13.38;8.15;;;;;;;20.78;64.70;101516.31;7396713;19;20094;-51
2023/05/22 10:58:55;;;;;;;11.63;8.88;;;;;;;20.75;65.00;101516.66;7395745;19;20019;-50
2023/05/22 11:01:25;;;;;;;11.63;8.95;;;;;;;20.69;64.47;101513.59;7396901;19;20614;-49
2023/05/22 11:03:59;;;;;;;13.07;8.50;;;;;;;20.66;65.05;101513.91;7395117;19;20011;-52
2023/05/22 11:06:47;;;;;;;12.32;8.55;;;;;;;20.68;64.29;101502.97;7395859;19;20029;-50
2023/05/22 11:09:29;;;;;;;13.52;7.93;;;;;;;20.69;64.14;101505.53;7394938;19;20076;-53
2023/05/22 11:12:22;;;;;;;11.10;7.22;;;;;;;20.70;64.55;101500.97;7397085;19;20014;-50
2023/05/22 11:14:55;;;;;;;11.52;8.48;;;;;;;20.67;64.45;101491.38;7399909;19;20019;-48
2023/05/22 11:17:27;;;;;;;12.57;8.80;;;;;;;20.71;65.04;101482.97;7396489;19;20022;-51
2023/05/22 11:20:03;;;;;;;15.32;8.70;;;;;;;20.73;64.77;101479.13;7393814;19;20025;-53
2023/05/22 11:22:50;;;;;;;15.18;8.68;;;;;;;20.80;65.31;101473.94;7396099;19;20023;-52
2023/05/22 11:25:19;;;;;;;12.27;8.40;;;;;;;20.81;65.41;101467.56;7395247;19;20025;-51
2023/05/22 11:27:47;;;;;;;11.73;8.98;;;;;;;20.87;64.75;101465.06;7395527;19;20117;-51